sensor_id;sensor_type;location;lat;lon;timestamp;P1;durP1;ratioP1;P2;durP2;ratioP2
62106;SDS011;48087;32.600;-97.100;2022-10-24T00:16:05;6;;;6;;
62106;SDS011;48087;32.600;-97.100;2022-10-24T00:38:29;6;;;6;;
62106;SDS011;48087;32.600;-97.100;2022-10-24T01:00:54;7;;;7;;
62106;SDS011;48087;32.600;-97.100;2022-10-24T01:23:24;6;;;6;;
62106;SDS011;48087;32.600;-97.100;2022-10-24T01:24:30;4;;;4;;
62106;SDS011;48087;32.600;-97.100;2022-10-24T01:46:53;4;;;4;;
62106;SDS011;48087;32.600;-97.100;2022-10-24T01:48:01;4;;;4;;
62106;SDS011;48087;32.600;-97.100;2022-10-24T02:10:25;4;;;4;;
62106;SDS011;48087;32.600;-97.100;2022-10-24T02:32:49;6;;;6;;
62106;SDS011;48087;32.600;-97.100;2022-10-24T02:55:12;4;;;4;;
62106;SDS011;48087;32.600;-97.100;2022-10-24T03:17:36;6;;;6;;
62106;SDS011;48087;32.600;-97.100;2022-10-24T03:18:45;4;;;4;;
62106;SDS011;48087;32.600;-97.100;2022-10-24T03:41:08;5;;;5;;
62106;SDS011;48087;32.600;-97.100;2022-10-24T04:03:33;4;;;4;;
62106;SDS011;48087;32.600;-97.100;2022-10-24T04:25:55;6;;;6;;
62106;SDS011;48087;32.600;-97.100;2022-10-24T04:48:18;4;;;4;;
62106;SDS011;48087;32.600;-97.100;2022-10-24T05:10:41;4;;;4;;
62106;SDS011;48087;32.600;-97.100;2022-10-24T05:34:13;4;;;4;;
62106;SDS011;48087;32.600;-97.100;2022-10-24T05:56:36;6;;;6;;
62106;SDS011;48087;32.600;-97.100;2022-10-24T06:18:59;4;;;4;;
62106;SDS011;48087;32.600;-97.100;2022-10-24T06:41:21;6;;;6;;
62106;SDS011;48087;32.600;-97.100;2022-10-24T07:03:44;6;;;6;;
62106;SDS011;48087;32.600;-97.100;2022-10-24T07:26:07;6;;;6;;
62106;SDS011;48087;32.600;-97.100;2022-10-24T07:48:28;8;;;7;;
62106;SDS011;48087;32.600;-97.100;2022-10-24T08:10:49;8;;;7;;
62106;SDS011;48087;32.600;-97.100;2022-10-24T08:33:11;6;;;6;;
62106;SDS011;48087;32.600;-97.100;2022-10-24T08:34:21;7;;;7;;
62106;SDS011;48087;32.600;-97.100;2022-10-24T08:56:42;7;;;7;;
62106;SDS011;48087;32.600;-97.100;2022-10-24T08:57:52;8;;;7;;
62106;SDS011;48087;32.600;-97.100;2022-10-24T09:20:19;10;;;9;;
62106;SDS011;48087;32.600;-97.100;2022-10-24T09:42:36;11;;;10;;
62106;SDS011;48087;32.600;-97.100;2022-10-24T09:43:45;11;;;10;;
62106;SDS011;48087;32.600;-97.100;2022-10-24T10:06:13;14;;;13;;
62106;SDS011;48087;32.600;-97.100;2022-10-24T10:28:27;13;;;12;;
62106;SDS011;48087;32.600;-97.100;2022-10-24T10:50:51;14;;;13;;
62106;SDS011;48087;32.600;-97.100;2022-10-24T11:13:13;14;;;13;;
62106;SDS011;48087;32.600;-97.100;2022-10-24T11:14:23;13;;;12;;
62106;SDS011;48087;32.600;-97.100;2022-10-24T11:36:44;13;;;12;;
62106;SDS011;48087;32.600;-97.100;2022-10-24T11:59:04;13;;;12;;
62106;SDS011;48087;32.600;-97.100;2022-10-24T12:21:27;13;;;12;;
62106;SDS011;48087;32.600;-97.100;2022-10-24T12:43:47;13;;;12;;
62106;SDS011;48087;32.600;-97.100;2022-10-24T12:45:18;13;;;12;;
62106;SDS011;48087;32.600;-97.100;2022-10-24T13:07:28;13;;;12;;
62106;SDS011;48087;32.600;-97.100;2022-10-24T13:30:44;13;;;12;;
62106;SDS011;48087;32.600;-97.100;2022-10-24T13:52:02;14;;;13;;
62106;SDS011;48087;32.600;-97.100;2022-10-24T13:53:11;13;;;12;;
62106;SDS011;48087;32.600;-97.100;2022-10-24T14:15:31;11;;;10;;
62106;SDS011;48087;32.600;-97.100;2022-10-24T14:37:52;13;;;12;;
62106;SDS011;48087;32.600;-97.100;2022-10-24T15:00:18;11;;;10;;
62106;SDS011;48087;32.600;-97.100;2022-10-24T15:22:35;13;;;12;;
62106;SDS011;48087;32.600;-97.100;2022-10-24T15:44:56;11;;;10;;
62106;SDS011;48087;32.600;-97.100;2022-10-24T16:07:18;12;;;11;;
62106;SDS011;48087;32.600;-97.100;2022-10-24T16:29:40;6;;;6;;
62106;SDS011;48087;32.600;-97.100;2022-10-24T16:51:58;6;;;6;;
62106;SDS011;48087;32.600;-97.100;2022-10-24T17:14:18;6;;;6;;
62106;SDS011;48087;32.600;-97.100;2022-10-24T17:15:27;7;;;7;;
62106;SDS011;48087;32.600;-97.100;2022-10-24T17:37:50;7;;;7;;
62106;SDS011;48087;32.600;-97.100;2022-10-24T18:00:10;7;;;7;;
62106;SDS011;48087;32.600;-97.100;2022-10-24T18:01:15;7;;;7;;
62106;SDS011;48087;32.600;-97.100;2022-10-24T18:23:35;6;;;6;;
62106;SDS011;48087;32.600;-97.100;2022-10-24T18:45:54;6;;;6;;
62106;SDS011;48087;32.600;-97.100;2022-10-24T19:08:14;4;;;4;;
62106;SDS011;48087;32.600;-97.100;2022-10-24T19:30:33;7;;;7;;
62106;SDS011;48087;32.600;-97.100;2022-10-24T19:31:42;8;;;8;;
62106;SDS011;48087;32.600;-97.100;2022-10-24T19:54:01;10;;;10;;
62106;SDS011;48087;32.600;-97.100;2022-10-24T20:16:21;10;;;9;;
62106;SDS011;48087;32.600;-97.100;2022-10-24T20:38:40;11;;;10;;
62106;SDS011;48087;32.600;-97.100;2022-10-24T21:01:03;11;;;10;;
62106;SDS011;48087;32.600;-97.100;2022-10-24T21:23:18;12;;;11;;
62106;SDS011;48087;32.600;-97.100;2022-10-24T21:24:27;11;;;10;;
62106;SDS011;48087;32.600;-97.100;2022-10-24T21:46:46;10;;;10;;
62106;SDS011;48087;32.600;-97.100;2022-10-24T22:09:06;10;;;10;;
62106;SDS011;48087;32.600;-97.100;2022-10-24T22:31:26;12;;;11;;
62106;SDS011;48087;32.600;-97.100;2022-10-24T22:32:34;11;;;10;;
62106;SDS011;48087;32.600;-97.100;2022-10-24T22:54:58;21;;;16;;
62106;SDS011;48087;32.600;-97.100;2022-10-24T23:17:20;23;;;17;;
62106;SDS011;48087;32.600;-97.100;2022-10-24T23:39:37;24;;;17;;
62106;SDS011;48087;32.600;-97.100;2022-10-24T23:40:46;24;;;17;;
